createdAt,value
2022-10-04T00:00:16.878Z,1015.50
2022-10-04T00:01:17.228Z,1015.48
2022-10-04T00:02:17.613Z,1015.49
2022-10-04T00:03:17.971Z,1015.50
2022-10-04T00:04:18.196Z,1015.49
2022-10-04T00:05:18.537Z,1015.48
2022-10-04T00:06:18.849Z,1015.51
2022-10-04T00:07:19.190Z,1015.45
2022-10-04T00:08:19.527Z,1015.52
2022-10-04T00:09:19.861Z,1015.59
2022-10-04T00:10:20.197Z,1015.52
2022-10-04T00:11:20.537Z,1015.57
2022-10-04T00:12:20.917Z,1015.57
2022-10-04T00:13:21.114Z,1015.67
2022-10-04T00:14:21.449Z,1015.62
2022-10-04T00:15:21.791Z,1015.56
2022-10-04T00:16:22.171Z,1015.63
2022-10-04T00:17:22.391Z,1015.60
2022-10-04T00:18:22.726Z,1015.57
2022-10-04T00:19:23.064Z,1015.63
2022-10-04T00:20:23.403Z,1015.61
2022-10-04T00:21:23.731Z,1015.61
2022-10-04T00:22:24.151Z,1015.59
2022-10-04T00:23:24.383Z,1015.55
2022-10-04T00:24:24.703Z,1015.54
2022-10-04T00:25:25.031Z,1015.52
2022-10-04T00:26:25.375Z,1015.51
2022-10-04T00:27:26.590Z,1015.51
2022-10-04T00:28:26.077Z,1015.48
2022-10-04T00:29:26.297Z,1015.47
2022-10-04T00:30:26.635Z,1015.50
2022-10-04T00:31:27.043Z,1015.57
2022-10-04T00:32:27.323Z,1015.48
2022-10-04T00:33:27.544Z,1015.50
2022-10-04T00:34:30.157Z,1015.49
2022-10-04T00:35:28.046Z,1015.51
2022-10-04T00:36:28.255Z,1015.51
2022-10-04T00:37:28.622Z,1015.48
2022-10-04T00:38:28.932Z,1015.53
2022-10-04T00:39:29.271Z,1015.48
2022-10-04T00:40:29.599Z,1015.50
2022-10-04T00:41:29.926Z,1015.54
2022-10-04T00:42:30.278Z,1015.46
2022-10-04T00:43:30.471Z,1015.50
2022-10-04T00:44:30.789Z,1015.52
2022-10-04T00:45:31.112Z,1015.53
2022-10-04T00:46:31.499Z,1015.46
2022-10-04T00:47:31.950Z,1015.48
2022-10-04T00:48:32.031Z,1015.49
2022-10-04T00:49:32.382Z,1015.43
2022-10-04T00:50:32.703Z,1015.52
2022-10-04T00:51:33.053Z,1015.49
2022-10-04T00:52:33.287Z,1015.44
2022-10-04T00:53:33.499Z,1015.47
2022-10-04T00:54:33.824Z,1015.54
2022-10-04T00:55:34.143Z,1015.52
2022-10-04T00:56:34.501Z,1015.53
2022-10-04T00:57:34.751Z,1015.51
2022-10-04T00:58:34.945Z,1015.54
2022-10-04T00:59:35.271Z,1015.52
2022-10-04T01:00:35.593Z,1015.54
2022-10-04T01:01:35.913Z,1015.49
2022-10-04T01:02:36.292Z,1015.51
2022-10-04T01:03:36.488Z,1015.50
2022-10-04T01:04:36.850Z,1015.55
2022-10-04T01:05:37.068Z,1015.54
2022-10-04T01:06:37.409Z,1015.57
2022-10-04T01:07:37.782Z,1015.57
2022-10-04T01:08:37.978Z,1015.52
2022-10-04T01:09:38.317Z,1015.50
2022-10-04T01:10:38.650Z,1015.53
2022-10-04T01:11:39.124Z,1015.50
2022-10-04T01:12:39.217Z,1015.54
2022-10-04T01:13:39.561Z,1015.50
2022-10-04T01:14:39.902Z,1015.51
2022-10-04T01:15:40.295Z,1015.49
2022-10-04T01:16:40.504Z,1015.47
2022-10-04T01:17:40.848Z,1015.49
2022-10-04T01:18:41.234Z,1015.49
2022-10-04T01:19:41.442Z,1015.46
2022-10-04T01:20:41.785Z,1015.51
2022-10-04T01:21:42.295Z,1015.54
2022-10-04T01:22:42.383Z,1015.53
2022-10-04T01:23:42.705Z,1015.50
2022-10-04T01:24:43.022Z,1015.55
2022-10-04T01:25:43.349Z,1015.51
2022-10-04T01:26:43.684Z,1015.52
2022-10-04T01:27:44.053Z,1015.50
2022-10-04T01:28:44.254Z,1015.56
2022-10-04T01:29:44.583Z,1015.55
2022-10-04T01:30:44.918Z,1015.55
2022-10-04T01:31:45.670Z,1015.56
2022-10-04T01:32:45.659Z,1015.58
2022-10-04T01:33:45.835Z,1015.57
2022-10-04T01:34:46.189Z,1015.59
2022-10-04T01:35:46.514Z,1015.50
2022-10-04T01:36:46.855Z,1015.56
2022-10-04T01:37:47.217Z,1015.60
2022-10-04T01:38:47.407Z,1015.53
2022-10-04T01:39:47.737Z,1015.55
2022-10-04T01:40:48.080Z,1015.51
2022-10-04T01:41:48.406Z,1015.47
2022-10-04T01:42:48.767Z,1015.48
2022-10-04T01:43:48.960Z,1015.52
2022-10-04T01:44:49.288Z,1015.48
2022-10-04T01:45:49.614Z,1015.49
2022-10-04T01:46:50.017Z,1015.58
2022-10-04T01:47:50.254Z,1015.53
2022-10-04T01:48:50.573Z,1015.45
2022-10-04T01:49:50.910Z,1015.58
2022-10-04T01:50:51.233Z,1015.55
2022-10-04T01:51:51.580Z,1015.61
2022-10-04T01:52:51.931Z,1015.59
2022-10-04T01:53:52.143Z,1015.61
2022-10-04T01:54:52.469Z,1015.62
2022-10-04T01:55:52.799Z,1015.62
2022-10-04T01:56:53.122Z,1015.59
2022-10-04T01:57:53.453Z,1015.54
2022-10-04T01:58:53.815Z,1015.62
2022-10-04T01:59:54.023Z,1015.61
2022-10-04T02:00:54.388Z,1015.56
2022-10-04T02:01:54.614Z,1015.61
2022-10-04T02:02:54.955Z,1015.54
2022-10-04T02:03:55.287Z,1015.59
2022-10-04T02:04:55.723Z,1015.57
2022-10-04T02:05:55.943Z,1015.58
2022-10-04T02:06:56.255Z,1015.52
2022-10-04T02:07:56.615Z,1015.52
2022-10-04T02:08:56.816Z,1015.55
2022-10-04T02:09:57.145Z,1015.53
2022-10-04T02:10:57.483Z,1015.51
2022-10-04T02:11:57.807Z,1015.56
2022-10-04T02:12:58.151Z,1015.54
2022-10-04T02:13:58.503Z,1015.53
2022-10-04T02:14:58.836Z,1015.53
2022-10-04T02:15:59.223Z,1015.51
2022-10-04T02:16:59.438Z,1015.50
2022-10-04T02:17:59.780Z,1015.49
2022-10-04T02:19:00.139Z,1015.52
2022-10-04T02:20:00.357Z,1015.45
2022-10-04T02:21:00.701Z,1015.47
2022-10-04T02:22:01.050Z,1015.49
2022-10-04T02:23:01.310Z,1015.46
2022-10-04T02:24:01.498Z,1015.40
2022-10-04T02:25:01.851Z,1015.49
2022-10-04T02:26:02.201Z,1015.49
2022-10-04T02:27:02.421Z,1015.47
2022-10-04T02:28:02.851Z,1015.48
2022-10-04T02:29:03.069Z,1015.49
2022-10-04T02:30:03.392Z,1015.46
2022-10-04T02:31:03.742Z,1015.43
2022-10-04T02:32:04.149Z,1015.37
2022-10-04T02:33:04.252Z,1015.38
2022-10-04T02:34:04.574Z,1015.37
2022-10-04T02:35:04.966Z,1015.38
2022-10-04T02:36:05.143Z,1015.39
2022-10-04T02:37:05.404Z,1015.39
2022-10-04T02:38:05.766Z,1015.40
2022-10-04T02:39:05.984Z,1015.43
2022-10-04T02:40:06.298Z,1015.39
2022-10-04T02:41:06.641Z,1015.41
2022-10-04T02:42:06.986Z,1015.41
2022-10-04T02:43:07.195Z,1015.41
2022-10-04T02:44:07.518Z,1015.42
2022-10-04T02:45:07.861Z,1015.39
2022-10-04T02:46:08.207Z,1015.43
2022-10-04T02:47:08.477Z,1015.44
2022-10-04T02:48:08.809Z,1015.45
2022-10-04T02:49:09.131Z,1015.43
2022-10-04T02:50:09.452Z,1015.41
2022-10-04T02:51:09.794Z,1015.47
2022-10-04T02:52:10.152Z,1015.50
2022-10-04T02:53:10.338Z,1015.45
2022-10-04T02:54:10.701Z,1015.48
2022-10-04T02:55:10.916Z,1015.39
2022-10-04T02:56:11.263Z,1015.42
2022-10-04T02:57:11.591Z,1015.46
2022-10-04T02:58:11.929Z,1015.40
2022-10-04T02:59:12.264Z,1015.37
2022-10-04T03:00:12.587Z,1015.36
2022-10-04T03:01:12.938Z,1015.36
2022-10-04T03:02:13.219Z,1015.38
2022-10-04T03:03:13.442Z,1015.32
2022-10-04T03:04:13.763Z,1015.34
2022-10-04T03:05:14.083Z,1015.32
2022-10-04T03:06:14.433Z,1015.35
2022-10-04T03:07:14.767Z,1015.35
2022-10-04T03:08:15.095Z,1015.41
2022-10-04T03:09:15.444Z,1015.33
2022-10-04T03:10:15.665Z,1015.42
2022-10-04T03:11:16.010Z,1015.36
2022-10-04T03:12:16.352Z,1015.45
2022-10-04T03:13:16.675Z,1015.38
2022-10-04T03:14:24.762Z,1015.38
2022-10-04T03:15:17.378Z,1015.39
2022-10-04T03:16:17.741Z,1015.38
2022-10-04T03:17:17.940Z,1015.38
2022-10-04T03:18:18.180Z,1015.40
2022-10-04T03:19:18.419Z,1015.38
2022-10-04T03:20:18.654Z,1015.40
2022-10-04T03:21:18.870Z,1015.39
2022-10-04T03:22:19.220Z,1015.34
2022-10-04T03:23:19.552Z,1015.38
2022-10-04T03:24:19.890Z,1015.39
2022-10-04T03:25:20.241Z,1015.35
2022-10-04T03:26:20.504Z,1015.36
2022-10-04T03:27:20.723Z,1015.39
2022-10-04T03:28:21.121Z,1015.37
2022-10-04T03:29:21.322Z,1015.33
2022-10-04T03:30:21.663Z,1015.35
2022-10-04T03:31:21.968Z,1015.34
2022-10-04T03:32:22.195Z,1015.38
2022-10-04T03:33:22.403Z,1015.35
2022-10-04T03:34:22.747Z,1015.37
2022-10-04T03:35:23.084Z,1015.38
2022-10-04T03:36:23.434Z,1015.33
2022-10-04T03:37:23.795Z,1015.35
2022-10-04T03:38:24.077Z,1015.33
2022-10-04T03:39:24.276Z,1015.34
2022-10-04T03:40:24.617Z,1015.38
2022-10-04T03:41:24.978Z,1015.34
2022-10-04T03:42:25.206Z,1015.39
2022-10-04T03:43:25.567Z,1015.34
2022-10-04T03:44:25.778Z,1015.42
2022-10-04T03:45:26.180Z,1015.33
2022-10-04T03:46:26.449Z,1015.36
2022-10-04T03:47:26.687Z,1015.40
2022-10-04T03:48:26.927Z,1015.37
2022-10-04T03:49:27.142Z,1015.38
2022-10-04T03:50:27.473Z,1015.41
2022-10-04T03:51:27.812Z,1015.35
2022-10-04T03:52:28.181Z,1015.40
2022-10-04T03:53:28.419Z,1015.41
2022-10-04T03:54:28.656Z,1015.39
2022-10-04T03:55:28.991Z,1015.39
2022-10-04T03:56:29.230Z,1015.42
2022-10-04T03:57:29.480Z,1015.41
2022-10-04T03:58:29.685Z,1015.42
2022-10-04T03:59:30.034Z,1015.43
2022-10-04T04:00:30.376Z,1015.40
2022-10-04T04:01:30.758Z,1015.48
2022-10-04T04:02:31.046Z,1015.47
2022-10-04T04:03:31.265Z,1015.42
2022-10-04T04:04:31.613Z,1015.44
2022-10-04T04:05:31.965Z,1015.44
2022-10-04T04:06:32.186Z,1015.48
2022-10-04T04:07:32.558Z,1015.44
2022-10-04T04:08:32.786Z,1015.49
2022-10-04T04:09:32.994Z,1015.53
2022-10-04T04:10:33.351Z,1015.49
2022-10-04T04:11:33.689Z,1015.51
2022-10-04T04:12:33.936Z,1015.48
2022-10-04T04:13:34.150Z,1015.52
2022-10-04T04:14:34.511Z,1015.53
2022-10-04T04:15:34.714Z,1015.54
2022-10-04T04:16:35.156Z,1015.53
2022-10-04T04:17:35.397Z,1015.50
2022-10-04T04:18:35.597Z,1015.56
2022-10-04T04:19:35.947Z,1015.57
2022-10-04T04:20:36.158Z,1015.61
2022-10-04T04:21:36.516Z,1015.58
2022-10-04T04:22:36.748Z,1015.58
2022-10-04T04:23:36.988Z,1015.61
2022-10-04T04:24:37.221Z,1015.57
2022-10-04T04:25:37.455Z,1015.65
2022-10-04T04:26:37.711Z,1015.64
2022-10-04T04:27:37.988Z,1015.62
2022-10-04T04:28:38.271Z,1015.64
2022-10-04T04:29:38.541Z,1015.65
2022-10-04T04:30:38.792Z,1015.64
2022-10-04T04:31:39.100Z,1015.67
2022-10-04T04:32:39.322Z,1015.63
2022-10-04T04:33:39.573Z,1015.63
2022-10-04T04:34:39.803Z,1015.64
2022-10-04T04:35:40.170Z,1015.68
2022-10-04T04:36:40.404Z,1015.67
2022-10-04T04:37:40.763Z,1015.67
2022-10-04T04:38:40.963Z,1015.65
2022-10-04T04:39:41.310Z,1015.59
2022-10-04T04:40:41.642Z,1015.62
2022-10-04T04:41:44.676Z,1015.60
2022-10-04T04:42:43.324Z,1015.60
2022-10-04T04:43:42.603Z,1015.61
2022-10-04T04:44:42.966Z,1015.59
2022-10-04T04:45:43.250Z,1015.63
2022-10-04T04:46:43.598Z,1015.68
2022-10-04T04:47:43.857Z,1015.66
2022-10-04T04:48:44.100Z,1015.70
2022-10-04T04:49:44.345Z,1015.67
2022-10-04T04:50:44.650Z,1015.69
2022-10-04T04:51:44.903Z,1015.73
2022-10-04T04:52:45.156Z,1015.73
2022-10-04T04:53:45.418Z,1015.67
2022-10-04T04:54:45.658Z,1015.71
2022-10-04T04:56:02.973Z,1015.70
2022-10-04T04:56:47.228Z,1015.66
2022-10-04T04:57:46.558Z,1015.72
2022-10-04T04:58:46.807Z,1015.73
2022-10-04T04:59:47.037Z,1015.74
2022-10-04T05:00:47.309Z,1015.76
2022-10-04T05:01:47.657Z,1015.73
2022-10-04T05:02:47.892Z,1015.68
2022-10-04T05:03:48.120Z,1015.74
2022-10-04T05:04:48.464Z,1015.75
2022-10-04T05:05:48.701Z,1015.76
2022-10-04T05:06:49.053Z,1015.69
2022-10-04T05:07:49.302Z,1015.75
2022-10-04T05:08:49.531Z,1015.81
2022-10-04T05:09:49.782Z,1015.86
2022-10-04T05:10:50.029Z,1015.77
2022-10-04T05:11:50.276Z,1015.82
2022-10-04T05:12:50.513Z,1015.76
2022-10-04T05:13:50.752Z,1015.85
2022-10-04T05:14:51.003Z,1015.77
2022-10-04T05:15:51.251Z,1015.75
2022-10-04T05:16:51.525Z,1015.78
2022-10-04T05:17:51.753Z,1015.80
2022-10-04T05:18:51.986Z,1015.88
2022-10-04T05:19:52.233Z,1015.85
2022-10-04T05:20:52.465Z,1015.88
2022-10-04T05:21:52.747Z,1015.91
2022-10-04T05:22:53.005Z,1015.86
2022-10-04T05:23:53.244Z,1015.88
2022-10-04T05:24:53.487Z,1015.83
2022-10-04T05:25:53.736Z,1015.82
2022-10-04T05:26:53.991Z,1015.88
2022-10-04T05:27:54.266Z,1015.77
2022-10-04T05:28:54.522Z,1015.80
2022-10-04T05:29:54.778Z,1015.84
2022-10-04T05:30:55.004Z,1015.82
2022-10-04T05:31:55.546Z,1015.85
2022-10-04T05:32:55.665Z,1015.90
2022-10-04T05:33:55.923Z,1015.90
2022-10-04T05:34:56.158Z,1015.91
2022-10-04T05:35:56.549Z,1015.89
2022-10-04T05:36:56.781Z,1015.90
2022-10-04T05:37:57.080Z,1015.94
2022-10-04T05:38:57.361Z,1015.98
2022-10-04T05:39:57.590Z,1015.97
2022-10-04T05:40:57.846Z,1016.01
2022-10-04T05:41:58.081Z,1015.99
2022-10-04T05:42:58.330Z,1016.03
2022-10-04T05:43:58.591Z,1016.06
2022-10-04T05:44:58.841Z,1016.05
2022-10-04T05:45:59.157Z,1016.08
2022-10-04T05:46:59.402Z,1015.99
2022-10-04T05:47:59.643Z,1016.04
2022-10-04T05:48:59.873Z,1016.02
2022-10-04T05:50:00.364Z,1016.05
2022-10-04T05:51:00.573Z,1016.03
2022-10-04T05:52:00.834Z,1015.99
2022-10-04T05:53:01.097Z,1016.09
2022-10-04T05:54:01.334Z,1016.10
2022-10-04T05:55:01.573Z,1016.07
2022-10-04T05:56:01.825Z,1016.09
2022-10-04T05:57:02.067Z,1016.12
2022-10-04T05:58:02.306Z,1016.11
2022-10-04T05:59:02.534Z,1016.12
2022-10-04T06:00:04.545Z,1016.15
2022-10-04T06:01:03.094Z,1016.14
2022-10-04T06:02:03.412Z,1016.12
2022-10-04T06:03:03.555Z,1016.15
2022-10-04T06:04:03.784Z,1016.20
2022-10-04T06:05:04.041Z,1016.22
2022-10-04T06:06:04.278Z,1016.23
2022-10-04T06:07:04.547Z,1016.25
2022-10-04T06:08:04.810Z,1016.26
2022-10-04T06:09:05.063Z,1016.20
2022-10-04T06:10:05.317Z,1016.26
2022-10-04T06:11:05.577Z,1016.26
2022-10-04T06:12:05.827Z,1016.21
2022-10-04T06:13:06.190Z,1016.19
2022-10-04T06:14:06.322Z,1016.24
2022-10-04T06:15:06.590Z,1016.19
2022-10-04T06:16:06.841Z,1016.21
2022-10-04T06:17:07.155Z,1016.26
2022-10-04T06:18:07.445Z,1016.21
2022-10-04T06:19:08.026Z,1016.24
2022-10-04T06:20:08.711Z,1016.17
2022-10-04T06:21:08.193Z,1016.19
2022-10-04T06:22:08.474Z,1016.19
2022-10-04T06:23:08.752Z,1016.23
2022-10-04T06:24:09.012Z,1016.25
2022-10-04T06:25:09.263Z,1016.22
2022-10-04T06:26:09.542Z,1016.22
2022-10-04T06:27:09.774Z,1016.21
2022-10-04T06:28:10.120Z,1016.24
2022-10-04T06:29:10.353Z,1016.22
2022-10-04T06:30:10.615Z,1016.25
2022-10-04T06:31:10.926Z,1016.26
2022-10-04T06:32:11.184Z,1016.22
2022-10-04T06:33:11.454Z,1016.27
2022-10-04T06:34:11.715Z,1016.16
2022-10-04T06:35:11.966Z,1016.20
2022-10-04T06:36:12.216Z,1016.22
2022-10-04T06:37:12.476Z,1016.19
2022-10-04T06:38:12.755Z,1016.20
2022-10-04T06:39:13.016Z,1016.21
2022-10-04T06:40:13.279Z,1016.21
2022-10-04T06:41:13.508Z,1016.19
2022-10-04T06:42:13.818Z,1016.18
2022-10-04T06:43:14.083Z,1016.17
2022-10-04T06:44:14.350Z,1016.21
2022-10-04T06:45:14.608Z,1016.23
2022-10-04T06:46:14.916Z,1016.24
2022-10-04T06:47:15.151Z,1016.22
2022-10-04T06:48:15.419Z,1016.23
2022-10-04T06:49:15.688Z,1016.31
2022-10-04T06:50:15.939Z,1016.28
2022-10-04T06:51:16.192Z,1016.30
2022-10-04T06:52:17.595Z,1016.31
2022-10-04T06:53:16.767Z,1016.35
2022-10-04T06:54:17.001Z,1016.35
2022-10-04T06:55:17.242Z,1016.32
2022-10-04T06:56:17.482Z,1016.30
2022-10-04T06:57:17.743Z,1016.38
2022-10-04T06:58:18.033Z,1016.38
2022-10-04T06:59:18.284Z,1016.41
2022-10-04T07:00:18.543Z,1016.38
2022-10-04T07:01:18.854Z,1016.40
2022-10-04T07:02:19.221Z,1016.34
2022-10-04T07:03:19.378Z,1016.34
2022-10-04T07:04:19.647Z,1016.35
2022-10-04T07:05:19.910Z,1016.39
2022-10-04T07:06:20.165Z,1016.40
2022-10-04T07:07:20.448Z,1016.36
2022-10-04T07:08:20.715Z,1016.36
2022-10-04T07:09:20.968Z,1016.40
2022-10-04T07:10:21.259Z,1016.39
2022-10-04T07:11:21.499Z,1016.43
2022-10-04T07:12:21.750Z,1016.47
2022-10-04T07:13:22.012Z,1016.48
2022-10-04T07:14:22.271Z,1016.49
2022-10-04T07:15:22.519Z,1016.49
2022-10-04T07:16:22.804Z,1016.47
2022-10-04T07:17:23.088Z,1016.46
2022-10-04T07:18:23.341Z,1016.52
2022-10-04T07:19:23.593Z,1016.53
2022-10-04T07:20:23.905Z,1016.54
2022-10-04T07:21:24.139Z,1016.49
2022-10-04T07:22:24.381Z,1016.60
2022-10-04T07:23:28.353Z,1016.56
2022-10-04T07:24:24.919Z,1016.52
2022-10-04T07:25:25.179Z,1016.57
2022-10-04T07:26:25.443Z,1016.54
2022-10-04T07:27:25.700Z,1016.54
2022-10-04T07:28:26.026Z,1016.58
2022-10-04T07:29:26.193Z,1016.57
2022-10-04T07:30:26.446Z,1016.58
2022-10-04T07:31:26.734Z,1016.60
2022-10-04T07:32:27.001Z,1016.62
2022-10-04T07:33:27.292Z,1016.58
2022-10-04T07:34:27.541Z,1016.58
2022-10-04T07:35:27.794Z,1016.60
2022-10-04T07:36:28.057Z,1016.64
2022-10-04T07:37:28.324Z,1016.67
2022-10-04T07:38:28.575Z,1016.67
2022-10-04T07:39:28.878Z,1016.68
2022-10-04T07:40:29.221Z,1016.64
2022-10-04T07:41:29.455Z,1016.64
2022-10-04T07:42:29.717Z,1016.70
2022-10-04T07:43:30.036Z,1016.67
2022-10-04T07:44:30.209Z,1016.71
2022-10-04T07:45:30.487Z,1016.65
2022-10-04T07:46:31.050Z,1016.67
2022-10-04T07:47:31.109Z,1016.65
2022-10-04T07:48:31.393Z,1016.69
2022-10-04T07:49:31.685Z,1016.64
2022-10-04T07:50:31.919Z,1016.66
2022-10-04T07:51:32.197Z,1016.67
2022-10-04T07:52:32.498Z,1016.71
2022-10-04T07:53:32.759Z,1016.69
2022-10-04T07:54:33.023Z,1016.77
2022-10-04T07:55:33.283Z,1016.75
2022-10-04T07:56:33.531Z,1016.74
2022-10-04T07:57:33.822Z,1016.76
2022-10-04T07:58:34.092Z,1016.74
2022-10-04T07:59:34.365Z,1016.72
2022-10-04T08:00:34.614Z,1016.77
2022-10-04T08:01:34.999Z,1016.77
2022-10-04T08:02:35.223Z,1016.85
2022-10-04T08:03:35.442Z,1016.86
2022-10-04T08:04:35.698Z,1016.87
2022-10-04T08:05:35.977Z,1016.82
2022-10-04T08:06:36.245Z,1016.83
2022-10-04T08:07:36.533Z,1016.89
2022-10-04T08:08:36.766Z,1016.90
2022-10-04T08:09:37.018Z,1016.84
2022-10-04T08:10:37.265Z,1016.83
2022-10-04T08:11:37.569Z,1016.89
2022-10-04T08:12:37.817Z,1016.85
2022-10-04T08:13:38.078Z,1016.88
2022-10-04T08:14:38.346Z,1016.87
2022-10-04T08:15:38.669Z,1016.95
2022-10-04T08:16:38.840Z,1017.00
2022-10-04T08:17:39.136Z,1017.00
2022-10-04T08:18:39.400Z,1016.98
2022-10-04T08:19:39.652Z,1016.96
2022-10-04T08:20:39.901Z,1016.97
2022-10-04T08:21:40.160Z,1016.98
2022-10-04T08:22:40.460Z,1016.99
2022-10-04T08:23:40.732Z,1017.00
2022-10-04T08:24:41.478Z,1017.04
2022-10-04T08:25:41.283Z,1017.07
2022-10-04T08:26:42.038Z,1017.10
2022-10-04T08:27:43.352Z,1017.11
2022-10-04T08:28:42.182Z,1017.06
2022-10-04T08:29:42.459Z,1017.00
2022-10-04T08:30:43.553Z,1017.04
2022-10-04T08:31:42.993Z,1017.05
2022-10-04T08:32:44.030Z,1017.04
2022-10-04T08:33:43.583Z,1017.03
2022-10-04T08:34:43.837Z,1017.03
2022-10-04T08:35:44.085Z,1017.03
2022-10-04T08:36:44.850Z,1017.02
2022-10-04T08:37:44.630Z,1017.00
2022-10-04T08:38:44.883Z,1017.05
2022-10-04T08:39:45.173Z,1017.09
2022-10-04T08:40:45.434Z,1017.11
2022-10-04T08:41:45.715Z,1017.07
2022-10-04T08:42:45.985Z,1017.11
2022-10-04T08:43:46.276Z,1017.14
2022-10-04T08:44:46.548Z,1017.02
2022-10-04T08:45:46.827Z,1017.03
2022-10-04T08:46:47.556Z,1017.00
2022-10-04T08:47:47.380Z,1017.07
2022-10-04T08:48:47.623Z,1017.03
2022-10-04T08:49:47.901Z,1017.03
2022-10-04T08:50:48.144Z,1017.02
2022-10-04T08:51:48.403Z,1016.99
2022-10-04T08:52:48.660Z,1017.04
2022-10-04T08:53:48.917Z,1017.01
2022-10-04T08:54:49.161Z,1017.04
2022-10-04T08:55:49.439Z,1017.05
2022-10-04T08:56:49.698Z,1017.08
2022-10-04T08:57:49.963Z,1017.15
2022-10-04T08:58:50.224Z,1017.12
2022-10-04T08:59:50.492Z,1017.02
2022-10-04T09:00:50.759Z,1017.10
2022-10-04T09:01:51.050Z,1017.06
2022-10-04T09:02:51.373Z,1017.09
2022-10-04T09:03:51.653Z,1017.10
2022-10-04T09:04:51.922Z,1017.14
2022-10-04T09:05:52.204Z,1017.13
2022-10-04T09:06:53.774Z,1017.10
2022-10-04T09:07:52.818Z,1017.11
2022-10-04T09:08:53.088Z,1017.18
2022-10-04T09:09:53.336Z,1017.12
2022-10-04T09:10:53.595Z,1017.12
2022-10-04T09:11:53.836Z,1017.14
2022-10-04T09:12:54.122Z,1017.14
2022-10-04T09:13:54.397Z,1017.19
2022-10-04T09:15:02.147Z,1017.12
2022-10-04T09:15:55.070Z,1017.15
2022-10-04T09:16:55.338Z,1017.08
2022-10-04T09:17:55.618Z,1017.07
2022-10-04T09:18:55.848Z,1017.09
2022-10-04T09:20:01.616Z,1017.09
2022-10-04T09:20:57.404Z,1017.09
2022-10-04T09:21:56.719Z,1017.11
2022-10-04T09:22:56.958Z,1017.10
2022-10-04T09:23:57.189Z,1017.16
2022-10-04T09:24:57.422Z,1017.16
2022-10-04T09:25:57.674Z,1017.15
2022-10-04T09:26:57.955Z,1017.17
2022-10-04T09:27:58.229Z,1017.16
2022-10-04T09:29:03.877Z,1017.16
2022-10-04T09:29:59.848Z,1017.17
2022-10-04T09:30:59.178Z,1017.18
2022-10-04T09:31:59.424Z,1017.12
2022-10-04T09:32:59.721Z,1017.10
2022-10-04T09:33:59.954Z,1017.14
2022-10-04T09:35:00.204Z,1017.13
2022-10-04T09:36:00.491Z,1017.18
2022-10-04T09:37:00.717Z,1017.21
2022-10-04T09:38:00.959Z,1017.18
2022-10-04T09:39:25.616Z,1017.23
2022-10-04T09:40:02.543Z,1017.22
2022-10-04T09:41:02.006Z,1017.20
2022-10-04T09:42:02.190Z,1017.22
2022-10-04T09:43:02.505Z,1017.20
2022-10-04T09:44:03.969Z,1017.20
2022-10-04T09:45:03.045Z,1017.22
2022-10-04T09:46:03.330Z,1017.18
2022-10-04T09:47:03.558Z,1017.19
2022-10-04T09:48:03.799Z,1017.13
2022-10-04T09:49:04.022Z,1017.14
2022-10-04T09:50:04.264Z,1017.13
2022-10-04T09:51:04.511Z,1017.11
2022-10-04T09:52:04.781Z,1017.09
2022-10-04T09:53:05.023Z,1017.13
2022-10-04T09:54:05.253Z,1017.13
2022-10-04T09:55:05.487Z,1017.11
2022-10-04T09:56:05.734Z,1017.09
2022-10-04T09:57:05.983Z,1017.07
2022-10-04T09:58:06.229Z,1017.03
2022-10-04T09:59:06.474Z,1017.01
2022-10-04T10:00:06.713Z,1017.01
2022-10-04T10:01:06.945Z,1017.04
2022-10-04T10:02:07.264Z,1017.05
2022-10-04T10:03:10.936Z,1017.01
2022-10-04T10:04:08.825Z,1017.01
2022-10-04T10:05:08.116Z,1017.04
2022-10-04T10:06:08.346Z,1016.98
2022-10-04T10:07:08.608Z,1017.02
2022-10-04T10:08:08.856Z,1016.95
2022-10-04T10:09:09.088Z,1017.03
2022-10-04T10:10:09.329Z,1017.08
2022-10-04T10:11:09.557Z,1017.07
2022-10-04T10:12:09.862Z,1017.07
2022-10-04T10:13:10.091Z,1017.09
2022-10-04T10:14:10.329Z,1017.11
2022-10-04T10:15:11.522Z,1017.05
2022-10-04T10:16:10.859Z,1017.13
2022-10-04T10:17:11.112Z,1017.09
2022-10-04T10:18:11.362Z,1017.07
2022-10-04T10:19:11.595Z,1017.07
2022-10-04T10:20:11.835Z,1017.03
2022-10-04T10:21:12.054Z,1017.14
2022-10-04T10:22:12.320Z,1017.09
2022-10-04T10:23:12.553Z,1017.12
2022-10-04T10:24:12.796Z,1017.10
2022-10-04T10:25:13.047Z,1017.16
2022-10-04T10:26:13.302Z,1017.15
2022-10-04T10:27:13.546Z,1017.24
2022-10-04T10:28:13.825Z,1017.23
2022-10-04T10:29:14.067Z,1017.23
2022-10-04T10:30:14.313Z,1017.21
2022-10-04T10:31:14.579Z,1017.22
2022-10-04T10:32:14.864Z,1017.28
2022-10-04T10:33:15.081Z,1017.28
2022-10-04T10:34:15.333Z,1017.20
2022-10-04T10:35:15.556Z,1017.28
2022-10-04T10:36:15.810Z,1017.26
2022-10-04T10:37:16.060Z,1017.29
2022-10-04T10:38:16.300Z,1017.31
2022-10-04T10:39:16.608Z,1017.24
2022-10-04T10:40:16.834Z,1017.22
2022-10-04T10:41:17.072Z,1017.25
2022-10-04T10:42:17.327Z,1017.21
2022-10-04T10:43:17.583Z,1017.20
2022-10-04T10:44:17.830Z,1017.21
2022-10-04T10:45:18.065Z,1017.13
2022-10-04T10:46:18.350Z,1017.23
2022-10-04T10:47:18.584Z,1017.24
2022-10-04T10:48:18.821Z,1017.21
2022-10-04T10:49:22.284Z,1017.17
2022-10-04T10:50:19.293Z,1017.19
2022-10-04T10:51:19.532Z,1017.23
2022-10-04T10:52:19.784Z,1017.19
2022-10-04T10:53:20.044Z,1017.21
2022-10-04T10:54:20.293Z,1017.17
2022-10-04T10:55:20.532Z,1017.26
2022-10-04T10:56:20.787Z,1017.22
2022-10-04T10:57:22.022Z,1017.21
2022-10-04T10:58:21.316Z,1017.17
2022-10-04T10:59:21.562Z,1017.17
2022-10-04T11:00:21.803Z,1017.18
2022-10-04T11:01:22.064Z,1017.14
2022-10-04T11:02:37.116Z,1017.14
2022-10-04T11:03:27.192Z,1017.12
2022-10-04T11:04:23.928Z,1017.17
2022-10-04T11:05:23.239Z,1017.22
2022-10-04T11:06:23.489Z,1017.16
2022-10-04T11:07:23.741Z,1017.25
2022-10-04T11:08:23.991Z,1017.20
2022-10-04T11:09:24.228Z,1017.20
2022-10-04T11:10:24.466Z,1017.22
2022-10-04T11:11:24.705Z,1017.19
2022-10-04T11:12:24.963Z,1017.19
2022-10-04T11:13:25.229Z,1017.26
2022-10-04T11:14:25.472Z,1017.22
2022-10-04T11:15:25.754Z,1017.27
2022-10-04T11:16:26.103Z,1017.23
2022-10-04T11:17:26.366Z,1017.21
2022-10-04T11:18:26.643Z,1017.26
2022-10-04T11:19:26.904Z,1017.17
2022-10-04T11:20:27.171Z,1017.27
2022-10-04T11:21:27.416Z,1017.23
2022-10-04T11:22:27.744Z,1017.22
2022-10-04T11:23:28.000Z,1017.22
2022-10-04T11:24:28.237Z,1017.22
2022-10-04T11:25:28.534Z,1017.16
2022-10-04T11:26:28.797Z,1017.19
2022-10-04T11:27:29.134Z,1017.15
2022-10-04T11:28:29.390Z,1017.14
2022-10-04T11:29:29.647Z,1017.13
2022-10-04T11:30:29.915Z,1017.14
2022-10-04T11:31:30.246Z,1017.08
2022-10-04T11:32:30.422Z,1017.11
2022-10-04T11:33:30.665Z,1017.13
2022-10-04T11:34:30.912Z,1017.08
2022-10-04T11:35:31.175Z,1017.13
2022-10-04T11:36:31.411Z,1017.09
2022-10-04T11:37:31.672Z,1017.13
2022-10-04T11:38:31.914Z,1017.07
2022-10-04T11:39:32.164Z,1017.08
2022-10-04T11:40:32.395Z,1017.08
2022-10-04T11:41:32.633Z,1017.11
2022-10-04T11:42:32.904Z,1017.05
2022-10-04T11:43:33.187Z,1017.01
2022-10-04T11:44:33.450Z,1017.07
2022-10-04T11:45:33.747Z,1016.95
2022-10-04T11:46:34.070Z,1016.97
2022-10-04T11:47:34.378Z,1016.95
2022-10-04T11:48:34.636Z,1016.94
2022-10-04T11:49:34.911Z,1016.92
2022-10-04T11:50:35.170Z,1016.94
2022-10-04T11:51:35.418Z,1016.96
2022-10-04T11:52:35.696Z,1017.06
2022-10-04T11:53:35.960Z,1016.94
2022-10-04T11:54:36.210Z,1017.05
2022-10-04T11:55:36.469Z,1017.00
2022-10-04T11:56:36.730Z,1017.05
2022-10-04T11:57:36.979Z,1016.98
2022-10-04T11:58:37.220Z,1016.98
2022-10-04T11:59:37.472Z,1016.96
2022-10-04T12:00:37.709Z,1016.94
2022-10-04T12:01:37.943Z,1016.88
2022-10-04T12:02:38.231Z,1016.83
2022-10-04T12:03:38.544Z,1016.84
2022-10-04T12:04:38.866Z,1016.91
2022-10-04T12:05:39.132Z,1016.87
2022-10-04T12:06:39.375Z,1016.80
2022-10-04T12:07:39.656Z,1016.84
2022-10-04T12:08:39.884Z,1016.80